createdAt,value
2019-03-17T00:01:24.247Z,61.05
2019-03-17T00:03:50.393Z,60.64
2019-03-17T00:06:16.238Z,61.30
2019-03-17T00:08:42.047Z,61.64
2019-03-17T00:11:07.947Z,61.77
2019-03-17T00:13:33.763Z,61.82
2019-03-17T00:15:59.596Z,62.04
2019-03-17T00:18:25.545Z,61.71
2019-03-17T00:20:54.495Z,61.46
2019-03-17T00:23:20.362Z,61.77
2019-03-17T00:25:46.221Z,61.73
2019-03-17T00:28:12.041Z,61.86
2019-03-17T00:30:39.607Z,61.85
2019-03-17T00:33:05.422Z,62.11
2019-03-17T00:35:31.291Z,62.02
2019-03-17T00:37:57.138Z,62.18
2019-03-17T00:40:22.979Z,61.90
2019-03-17T00:42:48.914Z,61.70
2019-03-17T00:45:14.954Z,61.66
2019-03-17T00:47:42.731Z,61.98
2019-03-17T00:50:09.753Z,61.97
2019-03-17T00:52:35.790Z,61.72
2019-03-17T00:55:01.828Z,61.74
2019-03-17T00:57:28.149Z,61.53
2019-03-17T00:59:54.089Z,61.91
2019-03-17T01:02:19.996Z,62.62
2019-03-17T01:04:55.643Z,62.62
2019-03-17T01:07:14.993Z,62.56
2019-03-17T01:09:40.810Z,62.53
2019-03-17T01:12:06.806Z,62.87
2019-03-17T01:14:32.646Z,63.31
2019-03-17T01:16:58.582Z,63.36
2019-03-17T01:19:24.603Z,63.22
2019-03-17T01:21:50.458Z,62.74
2019-03-17T01:24:16.291Z,63.15
2019-03-17T01:26:42.279Z,63.32
2019-03-17T01:29:08.140Z,63.13
2019-03-17T01:31:34.109Z,63.27
2019-03-17T01:34:00.013Z,63.48
2019-03-17T01:36:25.975Z,63.50
2019-03-17T01:38:51.896Z,63.50
2019-03-17T01:41:17.937Z,63.47
2019-03-17T01:43:43.888Z,63.31
2019-03-17T01:46:09.826Z,63.39
2019-03-17T01:48:35.680Z,63.32
2019-03-17T01:51:01.564Z,63.47
2019-03-17T01:53:27.455Z,63.34
2019-03-17T01:55:53.410Z,63.59
2019-03-17T01:58:19.405Z,63.40
2019-03-17T02:00:45.349Z,63.50
2019-03-17T02:03:11.317Z,63.05
2019-03-17T02:05:37.216Z,63.67
2019-03-17T02:08:03.066Z,64.01
2019-03-17T02:10:29.086Z,63.67
2019-03-17T02:12:55.026Z,63.73
2019-03-17T02:15:21.160Z,63.74
2019-03-17T02:17:47.044Z,63.47
2019-03-17T02:20:12.975Z,63.30
2019-03-17T02:22:38.919Z,63.22
2019-03-17T02:25:05.410Z,63.36
2019-03-17T02:27:31.234Z,62.68
2019-03-17T02:29:57.101Z,63.27
2019-03-17T02:32:23.047Z,63.27
2019-03-17T02:34:50.780Z,63.20
2019-03-17T02:37:16.713Z,63.11
2019-03-17T02:39:42.720Z,63.29
2019-03-17T02:42:08.675Z,63.29
2019-03-17T02:44:34.508Z,63.59
2019-03-17T02:47:00.353Z,63.85
2019-03-17T02:49:26.255Z,63.75
2019-03-17T02:51:52.196Z,64.03
2019-03-17T02:54:18.034Z,64.32
2019-03-17T02:56:43.929Z,64.11
2019-03-17T02:59:09.773Z,64.47
2019-03-17T03:01:35.736Z,64.37
2019-03-17T03:04:01.740Z,64.47
2019-03-17T03:06:27.694Z,64.55
2019-03-17T03:08:53.627Z,64.79
2019-03-17T03:11:19.532Z,64.95
2019-03-17T03:13:45.354Z,63.89
2019-03-17T03:16:11.306Z,64.53
2019-03-17T03:18:37.441Z,64.54
2019-03-17T03:21:03.381Z,64.36
2019-03-17T03:23:29.215Z,64.63
2019-03-17T03:25:55.064Z,64.93
2019-03-17T03:28:21.055Z,64.74
2019-03-17T03:30:47.013Z,64.84
2019-03-17T03:33:12.933Z,64.92
2019-03-17T03:35:38.991Z,64.81
2019-03-17T03:38:04.905Z,64.88
2019-03-17T03:40:31.132Z,64.69
2019-03-17T03:42:57.879Z,64.98
2019-03-17T03:45:23.890Z,65.18
2019-03-17T03:47:50.106Z,65.11
2019-03-17T03:50:16.259Z,65.57
2019-03-17T03:52:42.117Z,65.71
2019-03-17T03:55:08.451Z,65.67
2019-03-17T03:57:34.565Z,66.04
2019-03-17T04:00:02.128Z,66.29
2019-03-17T04:02:28.178Z,66.54
2019-03-17T04:04:54.072Z,66.21
2019-03-17T04:07:19.896Z,66.02
2019-03-17T04:09:45.945Z,66.08
2019-03-17T04:12:11.903Z,66.10
2019-03-17T04:14:37.779Z,66.07
2019-03-17T04:17:03.606Z,66.07
2019-03-17T04:19:29.549Z,66.00
2019-03-17T04:21:55.413Z,66.28
2019-03-17T04:24:21.250Z,66.45
2019-03-17T04:26:47.085Z,66.45
2019-03-17T04:29:13.084Z,66.50
2019-03-17T04:31:38.897Z,66.78
2019-03-17T04:34:04.820Z,66.89
2019-03-17T04:36:40.056Z,67.00
2019-03-17T04:38:58.543Z,66.96
2019-03-17T04:41:24.475Z,66.80
2019-03-17T04:43:50.354Z,66.72
2019-03-17T04:46:16.958Z,66.70
2019-03-17T04:48:43.129Z,66.89
2019-03-17T04:51:09.301Z,66.78
2019-03-17T04:53:35.113Z,66.90
2019-03-17T04:56:00.956Z,67.00
2019-03-17T04:58:26.882Z,67.38
2019-03-17T05:00:52.863Z,67.76
2019-03-17T05:03:18.841Z,67.81
2019-03-17T05:05:44.735Z,67.96
2019-03-17T05:08:10.566Z,68.13
2019-03-17T05:10:36.621Z,68.30
2019-03-17T05:13:02.673Z,68.43
2019-03-17T05:15:28.521Z,68.27
2019-03-17T05:17:54.607Z,68.61
2019-03-17T05:20:20.412Z,68.60
2019-03-17T05:22:46.393Z,68.75
2019-03-17T05:25:12.361Z,69.04
2019-03-17T05:27:38.593Z,69.15
2019-03-17T05:30:07.670Z,69.30
2019-03-17T05:32:33.507Z,69.36
2019-03-17T05:34:59.341Z,69.40
2019-03-17T05:37:25.247Z,69.17
2019-03-17T05:39:51.176Z,69.36
2019-03-17T05:42:17.145Z,69.30
2019-03-17T05:44:42.962Z,68.72
2019-03-17T05:47:08.807Z,68.54
2019-03-17T05:49:34.716Z,68.54
2019-03-17T05:52:00.564Z,68.40
2019-03-17T05:54:26.380Z,68.46
2019-03-17T05:56:52.341Z,68.29
2019-03-17T05:59:19.631Z,68.20
2019-03-17T06:01:45.698Z,68.03
2019-03-17T06:04:11.551Z,67.86
2019-03-17T06:06:40.979Z,67.93
2019-03-17T06:09:06.996Z,67.28
2019-03-17T06:11:32.851Z,67.44
2019-03-17T06:13:58.813Z,67.59
2019-03-17T06:16:24.692Z,67.50
2019-03-17T06:18:50.649Z,67.61
2019-03-17T06:21:16.490Z,67.62
2019-03-17T06:23:42.374Z,67.32
2019-03-17T06:26:08.233Z,67.19
2019-03-17T06:28:34.290Z,66.88
2019-03-17T06:31:00.243Z,66.95
2019-03-17T06:33:26.077Z,66.36
2019-03-17T06:35:52.008Z,66.19
2019-03-17T06:38:18.128Z,66.02
2019-03-17T06:40:43.945Z,65.87
2019-03-17T06:43:09.880Z,65.55
2019-03-17T06:45:35.882Z,65.40
2019-03-17T06:48:01.720Z,65.49
2019-03-17T06:50:27.560Z,65.14
2019-03-17T06:52:53.848Z,65.07
2019-03-17T06:55:19.807Z,64.74
2019-03-17T06:57:45.640Z,64.80
2019-03-17T07:00:12.749Z,64.53
2019-03-17T07:02:38.593Z,64.06
2019-03-17T07:05:06.037Z,63.67
2019-03-17T07:07:43.377Z,63.69
2019-03-17T07:09:59.838Z,63.61
2019-03-17T07:12:25.642Z,62.93
2019-03-17T07:14:51.721Z,62.33
2019-03-17T07:17:19.352Z,62.04
2019-03-17T07:19:45.374Z,62.47
2019-03-17T07:22:12.013Z,62.59
2019-03-17T07:24:37.958Z,62.01
2019-03-17T07:27:03.844Z,62.47
2019-03-17T07:29:29.696Z,61.63
2019-03-17T07:31:55.540Z,62.09
2019-03-17T07:34:21.581Z,61.54
2019-03-17T07:36:47.509Z,61.49
2019-03-17T07:39:13.335Z,62.15
2019-03-17T07:41:39.222Z,61.67
2019-03-17T07:44:05.255Z,61.53
2019-03-17T07:46:31.111Z,62.11
2019-03-17T07:48:56.973Z,62.10
2019-03-17T07:51:22.802Z,61.38
2019-03-17T07:53:48.693Z,62.08
2019-03-17T07:56:14.545Z,62.08
2019-03-17T07:58:40.481Z,61.45
2019-03-17T08:01:06.346Z,61.88
2019-03-17T08:03:32.292Z,61.89
2019-03-17T08:05:58.259Z,60.86
2019-03-17T08:08:24.190Z,60.96
2019-03-17T08:10:49.966Z,61.32
2019-03-17T08:13:15.808Z,60.41
2019-03-17T08:15:41.754Z,60.28
2019-03-17T08:18:07.585Z,59.80
2019-03-17T08:20:33.437Z,58.73
2019-03-17T08:22:59.339Z,59.47
2019-03-17T08:25:25.199Z,59.01
2019-03-17T08:27:51.035Z,57.88
2019-03-17T08:30:17.046Z,57.88
2019-03-17T08:32:42.888Z,57.11
2019-03-17T08:35:09.205Z,55.44
2019-03-17T08:37:35.109Z,54.31
2019-03-17T08:40:01.171Z,54.20
2019-03-17T08:42:27.023Z,53.73
2019-03-17T08:44:53.020Z,54.23
2019-03-17T08:47:18.969Z,53.47
2019-03-17T08:49:44.796Z,53.91
2019-03-17T08:52:10.766Z,53.38
2019-03-17T08:54:36.604Z,53.64
2019-03-17T08:57:02.622Z,52.78
2019-03-17T08:59:28.479Z,52.88
2019-03-17T09:01:54.313Z,52.18
2019-03-17T09:04:20.270Z,52.71
2019-03-17T09:06:49.406Z,52.62
2019-03-17T09:09:17.354Z,53.12
2019-03-17T09:11:43.724Z,53.65
2019-03-17T09:14:09.614Z,52.49
2019-03-17T09:16:35.623Z,52.00
2019-03-17T09:19:01.576Z,52.11
2019-03-17T09:21:27.392Z,52.36
2019-03-17T09:23:53.379Z,51.82
2019-03-17T09:26:19.318Z,51.83
2019-03-17T09:28:45.170Z,51.21
2019-03-17T09:31:11.016Z,51.40
2019-03-17T09:33:36.862Z,51.75
2019-03-17T09:36:02.843Z,51.77
2019-03-17T09:38:28.806Z,51.54
2019-03-17T09:40:54.651Z,51.46
2019-03-17T09:43:21.520Z,51.00
2019-03-17T09:45:47.315Z,50.27
2019-03-17T09:48:13.191Z,50.43
2019-03-17T09:50:39.641Z,50.01
2019-03-17T09:53:05.572Z,50.04
2019-03-17T09:55:31.407Z,49.78
2019-03-17T09:57:57.271Z,50.29
2019-03-17T10:00:23.136Z,49.48
2019-03-17T10:02:48.999Z,49.82
2019-03-17T10:05:15.043Z,49.19
2019-03-17T10:07:40.999Z,48.36
2019-03-17T10:10:16.285Z,49.25
2019-03-17T10:12:42.203Z,48.67
2019-03-17T10:15:11.873Z,48.57
2019-03-17T10:17:37.817Z,49.32
2019-03-17T10:20:12.310Z,47.58
2019-03-17T10:22:40.681Z,48.36
2019-03-17T10:25:08.642Z,48.55
2019-03-17T10:27:34.438Z,48.25
2019-03-17T10:30:00.731Z,49.56
2019-03-17T10:32:26.568Z,48.90
2019-03-17T10:34:52.457Z,48.62
2019-03-17T10:37:18.455Z,47.65
2019-03-17T10:39:44.317Z,48.80
2019-03-17T10:42:10.147Z,48.89
2019-03-17T10:44:36.053Z,47.97
2019-03-17T10:47:01.888Z,49.30
2019-03-17T10:49:27.706Z,48.39
2019-03-17T10:51:53.581Z,49.25
2019-03-17T10:54:19.512Z,47.05
2019-03-17T10:56:45.404Z,49.14
2019-03-17T10:59:11.257Z,49.45
2019-03-17T11:01:37.087Z,46.86
2019-03-17T11:04:03.331Z,47.66
2019-03-17T11:06:29.259Z,46.55
2019-03-17T11:08:55.143Z,46.34
2019-03-17T11:11:21.025Z,47.26
2019-03-17T11:13:46.853Z,46.77
2019-03-17T11:16:12.706Z,48.31
2019-03-17T11:18:39.608Z,46.72
2019-03-17T11:21:05.451Z,46.90
2019-03-17T11:23:31.290Z,46.08
2019-03-17T11:25:57.173Z,48.51
2019-03-17T11:28:23.116Z,48.26
2019-03-17T11:30:56.727Z,48.62
2019-03-17T11:33:22.571Z,48.75
2019-03-17T11:35:48.489Z,49.13
2019-03-17T11:38:14.336Z,48.07
2019-03-17T11:40:40.170Z,47.87
2019-03-17T11:43:06.962Z,47.39
2019-03-17T11:45:32.893Z,46.35
2019-03-17T11:47:58.741Z,45.90
2019-03-17T11:50:24.811Z,46.82
2019-03-17T11:52:50.858Z,47.88
2019-03-17T11:55:16.940Z,46.28
2019-03-17T11:57:42.905Z,46.29
2019-03-17T12:00:18.860Z,46.20
2019-03-17T12:02:44.838Z,47.92
2019-03-17T12:05:11.098Z,47.97
2019-03-17T12:07:37.264Z,47.97
2019-03-17T12:10:09.617Z,49.28
2019-03-17T12:12:35.448Z,48.91
2019-03-17T12:15:01.614Z,50.86
2019-03-17T12:17:30.978Z,50.10
2019-03-17T12:19:56.994Z,48.84
2019-03-17T12:22:22.870Z,49.64
2019-03-17T12:24:48.725Z,50.13
2019-03-17T12:27:14.573Z,51.40
2019-03-17T12:29:40.530Z,50.73
2019-03-17T12:32:06.521Z,51.72
2019-03-17T12:34:32.460Z,51.37
2019-03-17T12:36:58.305Z,52.03
2019-03-17T12:39:24.374Z,51.79
2019-03-17T12:41:50.214Z,52.28
2019-03-17T12:44:16.054Z,53.09
2019-03-17T12:46:42.027Z,53.61
2019-03-17T12:49:09.627Z,53.66
2019-03-17T12:51:35.552Z,53.63
2019-03-17T12:54:03.493Z,53.87
2019-03-17T12:56:31.645Z,54.26
2019-03-17T12:58:57.816Z,54.93
2019-03-17T13:01:23.794Z,54.64
2019-03-17T13:03:49.741Z,54.33
2019-03-17T13:06:15.856Z,54.14
2019-03-17T13:08:41.929Z,55.03
2019-03-17T13:11:07.881Z,55.05
2019-03-17T13:13:34.001Z,54.52
2019-03-17T13:16:01.210Z,54.54
2019-03-17T13:18:27.120Z,56.40
2019-03-17T13:20:53.196Z,56.16
2019-03-17T13:23:21.646Z,54.55
2019-03-17T13:25:49.788Z,55.52
2019-03-17T13:28:15.758Z,53.92
2019-03-17T13:30:43.616Z,53.98
2019-03-17T13:33:09.704Z,53.57
2019-03-17T13:35:36.886Z,51.81
2019-03-17T13:38:03.071Z,50.63
2019-03-17T13:40:30.211Z,51.23
2019-03-17T13:42:56.328Z,50.49
2019-03-17T13:45:22.348Z,50.92
2019-03-17T13:47:48.424Z,51.09
2019-03-17T13:50:19.606Z,49.64
2019-03-17T13:52:45.690Z,47.77
2019-03-17T13:55:11.610Z,43.69
2019-03-17T13:57:38.153Z,37.46
2019-03-17T14:00:07.906Z,35.66
2019-03-17T14:02:33.766Z,36.57
2019-03-17T14:04:59.730Z,40.17
2019-03-17T14:07:25.715Z,43.06
2019-03-17T14:09:51.577Z,43.67
2019-03-17T14:12:17.442Z,43.99
2019-03-17T14:14:43.419Z,47.88
2019-03-17T14:17:09.252Z,42.50
2019-03-17T14:19:35.074Z,41.37
2019-03-17T14:22:01.051Z,43.23
2019-03-17T14:24:26.936Z,44.50
2019-03-17T14:26:52.771Z,42.24
2019-03-17T14:29:18.619Z,39.52
2019-03-17T14:31:44.491Z,43.83
2019-03-17T14:34:10.426Z,42.92
2019-03-17T14:36:36.468Z,45.78
2019-03-17T14:39:04.825Z,46.03
2019-03-17T14:41:30.921Z,46.03
2019-03-17T14:43:56.737Z,46.47
2019-03-17T14:46:22.679Z,47.01
2019-03-17T14:48:48.534Z,45.82
2019-03-17T14:51:14.357Z,46.21
2019-03-17T14:53:40.262Z,48.25
2019-03-17T14:56:06.244Z,49.67
2019-03-17T14:58:32.082Z,50.70
2019-03-17T15:00:58.003Z,50.66
2019-03-17T15:03:23.846Z,49.94
2019-03-17T15:05:51.626Z,51.86
2019-03-17T15:08:17.503Z,52.27
2019-03-17T15:10:46.830Z,52.28
2019-03-17T15:13:12.677Z,52.60
2019-03-17T15:15:38.532Z,53.65
2019-03-17T15:18:04.357Z,53.26
2019-03-17T15:20:30.208Z,52.24
2019-03-17T15:22:56.168Z,53.29
2019-03-17T15:25:22.037Z,53.06
2019-03-17T15:27:47.961Z,53.31
2019-03-17T15:30:19.811Z,52.74
2019-03-17T15:32:45.748Z,53.13
2019-03-17T15:35:13.419Z,52.41
2019-03-17T15:37:39.634Z,52.20
2019-03-17T15:40:11.000Z,52.59
2019-03-17T15:42:36.899Z,52.34
2019-03-17T15:45:05.727Z,52.50
2019-03-17T15:47:34.554Z,53.04
2019-03-17T15:50:00.638Z,53.55
2019-03-17T15:52:26.492Z,54.10
2019-03-17T15:54:52.322Z,53.83
2019-03-17T15:57:18.153Z,53.88
2019-03-17T15:59:44.061Z,53.99
2019-03-17T16:02:09.961Z,53.89
2019-03-17T16:04:35.806Z,53.27
2019-03-17T16:07:02.114Z,53.72
2019-03-17T16:09:28.722Z,54.24
2019-03-17T16:11:58.449Z,53.69
2019-03-17T16:14:24.286Z,53.69
2019-03-17T16:16:50.281Z,54.50
2019-03-17T16:19:16.206Z,54.76
2019-03-17T16:21:42.092Z,54.46
2019-03-17T16:24:07.997Z,54.70
2019-03-17T16:26:33.829Z,54.78
2019-03-17T16:28:59.767Z,55.04
2019-03-17T16:31:25.597Z,54.91
2019-03-17T16:33:51.544Z,55.38
2019-03-17T16:36:17.372Z,55.52
2019-03-17T16:38:43.218Z,55.71
2019-03-17T16:41:09.092Z,55.54
2019-03-17T16:43:35.133Z,55.90
2019-03-17T16:46:01.223Z,55.76
2019-03-17T16:48:27.056Z,56.06
2019-03-17T16:50:52.894Z,55.98
2019-03-17T16:53:18.839Z,55.91
2019-03-17T16:55:44.693Z,55.80
2019-03-17T16:58:10.622Z,56.17
2019-03-17T17:00:36.710Z,56.19
2019-03-17T17:03:02.796Z,55.61
2019-03-17T17:05:35.046Z,55.70
2019-03-17T17:08:01.256Z,55.44
2019-03-17T17:10:28.229Z,55.51
2019-03-17T17:12:54.322Z,55.60
2019-03-17T17:15:23.333Z,55.47
2019-03-17T17:17:49.642Z,55.54
2019-03-17T17:20:18.120Z,55.64
2019-03-17T17:22:44.196Z,55.31
2019-03-17T17:25:10.729Z,55.34
2019-03-17T17:27:36.585Z,55.45
2019-03-17T17:30:06.083Z,55.28
2019-03-17T17:32:33.456Z,55.02
2019-03-17T17:34:59.306Z,54.96
2019-03-17T17:37:25.199Z,55.55
2019-03-17T17:39:51.036Z,55.63
2019-03-17T17:42:16.874Z,55.08
2019-03-17T17:44:42.823Z,55.57
2019-03-17T17:47:08.719Z,54.94
2019-03-17T17:49:34.656Z,56.52
2019-03-17T17:52:02.592Z,55.15
2019-03-17T17:54:28.355Z,55.64
2019-03-17T17:56:54.648Z,55.89
2019-03-17T17:59:20.468Z,56.21
2019-03-17T18:01:46.313Z,56.33
2019-03-17T18:04:12.269Z,56.36
2019-03-17T18:06:38.290Z,56.66
2019-03-17T18:09:05.730Z,57.01
2019-03-17T18:11:31.637Z,56.46
2019-03-17T18:13:57.521Z,55.72
2019-03-17T18:16:23.465Z,55.63
2019-03-17T18:18:49.358Z,56.02
2019-03-17T18:21:15.200Z,55.81
2019-03-17T18:23:41.061Z,56.42
2019-03-17T18:26:07.134Z,56.45
2019-03-17T18:28:33.110Z,56.66
2019-03-17T18:30:59.155Z,56.61
2019-03-17T18:33:25.152Z,56.72
2019-03-17T18:35:50.998Z,56.72
2019-03-17T18:38:16.896Z,56.66
2019-03-17T18:40:42.785Z,56.66
2019-03-17T18:43:08.748Z,56.74
2019-03-17T18:45:34.695Z,56.94
2019-03-17T18:48:00.773Z,56.89
2019-03-17T18:50:26.818Z,57.16
2019-03-17T18:52:52.758Z,57.15
2019-03-17T18:55:18.849Z,57.10
2019-03-17T18:57:44.905Z,57.08
2019-03-17T19:00:17.869Z,57.32
2019-03-17T19:02:44.037Z,57.35
2019-03-17T19:05:11.974Z,57.29
2019-03-17T19:07:37.936Z,57.36
2019-03-17T19:10:06.664Z,57.41
2019-03-17T19:12:44.622Z,57.45
2019-03-17T19:15:07.723Z,57.39
2019-03-17T19:17:33.683Z,57.17
2019-03-17T19:19:59.824Z,57.79
2019-03-17T19:22:25.642Z,57.82
2019-03-17T19:24:51.620Z,57.79
2019-03-17T19:27:17.574Z,58.03
2019-03-17T19:29:43.421Z,58.02
2019-03-17T19:32:09.391Z,57.59
2019-03-17T19:34:35.314Z,57.59
2019-03-17T19:37:01.183Z,57.89
2019-03-17T19:39:27.198Z,58.01
2019-03-17T19:41:53.150Z,58.24
2019-03-17T19:44:19.013Z,58.28
2019-03-17T19:46:44.856Z,58.01
2019-03-17T19:49:10.940Z,58.06
2019-03-17T19:51:36.893Z,57.72
2019-03-17T19:54:03.060Z,57.36
2019-03-17T19:56:29.917Z,57.37
2019-03-17T19:58:55.745Z,57.59
2019-03-17T20:01:21.578Z,57.59
2019-03-17T20:03:47.447Z,57.46
2019-03-17T20:06:13.287Z,57.03
2019-03-17T20:08:39.233Z,57.04
2019-03-17T20:11:06.642Z,56.81
2019-03-17T20:13:32.493Z,56.86
2019-03-17T20:15:58.365Z,56.74
2019-03-17T20:18:24.197Z,57.05
2019-03-17T20:20:50.440Z,56.80
2019-03-17T20:23:21.314Z,56.71
2019-03-17T20:25:48.012Z,56.39
2019-03-17T20:28:13.798Z,56.61
2019-03-17T20:30:39.764Z,56.74
2019-03-17T20:33:05.596Z,56.54
2019-03-17T20:35:31.543Z,56.92
2019-03-17T20:37:57.540Z,56.92
2019-03-17T20:40:23.616Z,57.00
2019-03-17T20:42:49.561Z,57.18
2019-03-17T20:45:15.657Z,57.59
2019-03-17T20:47:42.015Z,57.79
2019-03-17T20:50:16.159Z,58.31
2019-03-17T20:52:42.236Z,58.32
2019-03-17T20:55:09.542Z,58.68
2019-03-17T20:57:35.770Z,59.17
2019-03-17T21:00:04.565Z,59.76
2019-03-17T21:02:30.619Z,60.98
2019-03-17T21:04:58.054Z,61.03
2019-03-17T21:07:24.141Z,61.37
2019-03-17T21:09:51.418Z,61.79
2019-03-17T21:12:17.920Z,61.58
2019-03-17T21:14:44.035Z,62.26
2019-03-17T21:17:10.094Z,62.85
2019-03-17T21:19:36.215Z,63.06
2019-03-17T21:22:02.273Z,63.30
2019-03-17T21:24:30.255Z,63.60
2019-03-17T21:26:57.337Z,63.65
2019-03-17T21:29:25.222Z,63.61
2019-03-17T21:31:51.162Z,64.21
2019-03-17T21:34:17.091Z,64.43
2019-03-17T21:36:42.928Z,64.23
2019-03-17T21:39:08.872Z,64.82
2019-03-17T21:41:34.867Z,64.75
2019-03-17T21:44:00.821Z,64.71
2019-03-17T21:46:26.659Z,64.89
2019-03-17T21:48:52.549Z,65.29
2019-03-17T21:51:18.360Z,65.55
2019-03-17T21:53:44.183Z,65.65
2019-03-17T21:56:10.064Z,66.14
2019-03-17T21:58:35.896Z,66.24
2019-03-17T22:01:01.744Z,66.64
2019-03-17T22:03:27.634Z,66.62
2019-03-17T22:05:53.570Z,67.12
2019-03-17T22:08:19.409Z,67.54
2019-03-17T22:10:45.300Z,67.37
2019-03-17T22:13:11.118Z,67.61
2019-03-17T22:15:36.947Z,67.81
2019-03-17T22:18:03.130Z,67.73
2019-03-17T22:20:29.059Z,67.98
2019-03-17T22:22:54.900Z,67.91
2019-03-17T22:25:20.839Z,67.58
2019-03-17T22:27:46.690Z,67.72
2019-03-17T22:30:16.356Z,67.98
2019-03-17T22:32:42.317Z,68.39
2019-03-17T22:35:08.903Z,68.24
2019-03-17T22:37:34.997Z,68.01
2019-03-17T22:40:01.094Z,68.18
2019-03-17T22:42:26.988Z,68.28
2019-03-17T22:44:52.863Z,68.18
2019-03-17T22:47:18.826Z,68.23
2019-03-17T22:49:44.742Z,68.04
2019-03-17T22:52:11.079Z,68.32
2019-03-17T22:54:36.933Z,68.47
2019-03-17T22:57:03.696Z,68.33
2019-03-17T22:59:29.621Z,68.39
2019-03-17T23:01:55.436Z,68.42
2019-03-17T23:04:22.245Z,68.31
2019-03-17T23:06:48.359Z,68.08
2019-03-17T23:09:14.359Z,67.51
2019-03-17T23:11:40.210Z,67.32
2019-03-17T23:14:06.297Z,67.69
2019-03-17T23:16:32.195Z,67.79
2019-03-17T23:19:01.792Z,67.59
2019-03-17T23:21:27.658Z,67.83
2019-03-17T23:23:53.490Z,68.04
2019-03-17T23:26:19.373Z,68.08
2019-03-17T23:28:45.296Z,67.78
2019-03-17T23:31:11.233Z,67.61
2019-03-17T23:33:37.176Z,67.61
2019-03-17T23:36:03.148Z,67.51
2019-03-17T23:38:28.988Z,67.60
2019-03-17T23:40:54.865Z,67.35
2019-03-17T23:43:20.679Z,67.04
2019-03-17T23:45:46.537Z,66.87
2019-03-17T23:48:12.526Z,66.94
2019-03-17T23:50:38.378Z,66.84
2019-03-17T23:53:04.204Z,67.02
2019-03-17T23:55:30.252Z,67.10
2019-03-17T23:57:56.223Z,67.26
